sensor_id;sensor_type;location;lat;lon;timestamp;pressure;altitude;pressure_sealevel;temperature;humidity
62928;BME280;51070;52.236;-0.892;2023-01-27T00:00:09;102298.42;;;3.46;92.97
62928;BME280;51070;52.236;-0.892;2023-01-27T00:02:39;102296.91;;;3.46;93.33
62928;BME280;51070;52.236;-0.892;2023-01-27T00:05:05;102295.42;;;3.47;93.29
62928;BME280;51070;52.236;-0.892;2023-01-27T00:07:31;102296.94;;;3.47;93.46
62928;BME280;51070;52.236;-0.892;2023-01-27T00:09:57;102296.17;;;3.48;93.37
62928;BME280;51070;52.236;-0.892;2023-01-27T00:12:24;102292.37;;;3.49;93.27
62928;BME280;51070;52.236;-0.892;2023-01-27T00:15:10;102296.52;;;3.54;93.77
62928;BME280;51070;52.236;-0.892;2023-01-27T00:17:36;102297.48;;;3.59;93.74
62928;BME280;51070;52.236;-0.892;2023-01-27T00:20:03;102294.19;;;3.62;93.48
62928;BME280;51070;52.236;-0.892;2023-01-27T00:22:29;102291.62;;;3.66;93.29
62928;BME280;51070;52.236;-0.892;2023-01-27T00:25:14;102281.51;;;3.70;93.59
62928;BME280;51070;52.236;-0.892;2023-01-27T00:27:39;102276.95;;;3.72;93.03
62928;BME280;51070;52.236;-0.892;2023-01-27T00:30:06;102278.76;;;3.74;93.11
62928;BME280;51070;52.236;-0.892;2023-01-27T00:32:32;102282.64;;;3.73;92.88
62928;BME280;51070;52.236;-0.892;2023-01-27T00:35:16;102282.09;;;3.73;92.79
62928;BME280;51070;52.236;-0.892;2023-01-27T00:37:43;102279.69;;;3.73;92.44
62928;BME280;51070;52.236;-0.892;2023-01-27T00:40:15;102278.94;;;3.74;92.46
62928;BME280;51070;52.236;-0.892;2023-01-27T00:42:40;102270.66;;;3.77;92.47
62928;BME280;51070;52.236;-0.892;2023-01-27T00:45:07;102263.75;;;3.80;92.20
62928;BME280;51070;52.236;-0.892;2023-01-27T00:47:52;102266.82;;;3.82;92.06
62928;BME280;51070;52.236;-0.892;2023-01-27T00:50:18;102263.95;;;3.85;92.20
62928;BME280;51070;52.236;-0.892;2023-01-27T00:52:44;102264.69;;;3.87;92.12
62928;BME280;51070;52.236;-0.892;2023-01-27T00:55:11;102266.01;;;3.89;92.13
62928;BME280;51070;52.236;-0.892;2023-01-27T00:57:37;102266.13;;;3.90;92.16
62928;BME280;51070;52.236;-0.892;2023-01-27T01:00:04;102272.50;;;3.91;92.09
62928;BME280;51070;52.236;-0.892;2023-01-27T01:02:31;102274.77;;;3.92;92.09
62928;BME280;51070;52.236;-0.892;2023-01-27T01:04:56;102269.66;;;3.90;92.02
62928;BME280;51070;52.236;-0.892;2023-01-27T01:07:22;102264.91;;;3.88;92.18
62928;BME280;51070;52.236;-0.892;2023-01-27T01:09:48;102265.48;;;3.89;92.24
62928;BME280;51070;52.236;-0.892;2023-01-27T01:12:13;102267.98;;;3.90;92.43
62928;BME280;51070;52.236;-0.892;2023-01-27T01:14:38;102274.05;;;3.93;92.57
62928;BME280;51070;52.236;-0.892;2023-01-27T01:17:04;102268.23;;;3.97;92.62
62928;BME280;51070;52.236;-0.892;2023-01-27T01:19:30;102271.04;;;4.00;92.82
62928;BME280;51070;52.236;-0.892;2023-01-27T01:21:55;102271.46;;;4.03;92.75
62928;BME280;51070;52.236;-0.892;2023-01-27T01:24:21;102278.13;;;4.03;92.36
62928;BME280;51070;52.236;-0.892;2023-01-27T01:26:46;102279.91;;;4.04;92.81
62928;BME280;51070;52.236;-0.892;2023-01-27T01:29:12;102278.78;;;4.05;92.73
62928;BME280;51070;52.236;-0.892;2023-01-27T01:31:37;102276.92;;;4.05;93.02
62928;BME280;51070;52.236;-0.892;2023-01-27T01:34:03;102275.71;;;4.05;92.97
62928;BME280;51070;52.236;-0.892;2023-01-27T01:36:28;102269.02;;;4.04;93.02
62928;BME280;51070;52.236;-0.892;2023-01-27T01:38:55;102267.95;;;4.04;93.20
62928;BME280;51070;52.236;-0.892;2023-01-27T01:41:21;102267.83;;;4.04;93.54
62928;BME280;51070;52.236;-0.892;2023-01-27T01:43:48;102267.23;;;4.06;93.84
62928;BME280;51070;52.236;-0.892;2023-01-27T01:46:14;102272.30;;;4.09;94.06
62928;BME280;51070;52.236;-0.892;2023-01-27T01:48:44;102273.23;;;4.12;94.25
62928;BME280;51070;52.236;-0.892;2023-01-27T01:51:21;102272.55;;;4.14;94.26
62928;BME280;51070;52.236;-0.892;2023-01-27T01:53:59;102262.16;;;4.14;94.22
62928;BME280;51070;52.236;-0.892;2023-01-27T01:56:37;102263.73;;;4.13;94.55
62928;BME280;51070;52.236;-0.892;2023-01-27T01:59:13;102262.27;;;4.12;94.73
62928;BME280;51070;52.236;-0.892;2023-01-27T02:01:40;102256.70;;;4.11;94.69
62928;BME280;51070;52.236;-0.892;2023-01-27T02:04:10;102257.21;;;4.11;94.68
62928;BME280;51070;52.236;-0.892;2023-01-27T02:06:42;102258.68;;;4.12;94.93
62928;BME280;51070;52.236;-0.892;2023-01-27T02:09:10;102261.48;;;4.15;95.21
62928;BME280;51070;52.236;-0.892;2023-01-27T02:11:36;102262.39;;;4.17;94.96
62928;BME280;51070;52.236;-0.892;2023-01-27T02:14:01;102266.31;;;4.19;95.26
62928;BME280;51070;52.236;-0.892;2023-01-27T02:16:28;102260.71;;;4.19;95.43
62928;BME280;51070;52.236;-0.892;2023-01-27T02:18:54;102263.92;;;4.21;95.57
62928;BME280;51070;52.236;-0.892;2023-01-27T02:21:19;102261.83;;;4.23;95.66
62928;BME280;51070;52.236;-0.892;2023-01-27T02:23:55;102264.09;;;4.23;95.63
62928;BME280;51070;52.236;-0.892;2023-01-27T02:26:35;102264.48;;;4.22;95.43
62928;BME280;51070;52.236;-0.892;2023-01-27T02:29:05;102263.41;;;4.21;95.84
62928;BME280;51070;52.236;-0.892;2023-01-27T02:31:31;102260.80;;;4.21;95.89
62928;BME280;51070;52.236;-0.892;2023-01-27T02:34:01;102255.04;;;4.19;95.79
62928;BME280;51070;52.236;-0.892;2023-01-27T02:36:31;102252.90;;;4.18;95.95
62928;BME280;51070;52.236;-0.892;2023-01-27T02:39:00;102251.24;;;4.19;95.99
62928;BME280;51070;52.236;-0.892;2023-01-27T02:41:40;102247.01;;;4.19;95.95
62928;BME280;51070;52.236;-0.892;2023-01-27T02:44:07;102241.69;;;4.19;96.14
62928;BME280;51070;52.236;-0.892;2023-01-27T02:46:34;102241.11;;;4.21;96.42
62928;BME280;51070;52.236;-0.892;2023-01-27T02:49:00;102240.85;;;4.22;96.41
62928;BME280;51070;52.236;-0.892;2023-01-27T02:51:26;102236.02;;;4.23;96.60
62928;BME280;51070;52.236;-0.892;2023-01-27T02:53:52;102232.40;;;4.23;96.64
62928;BME280;51070;52.236;-0.892;2023-01-27T02:56:17;102227.88;;;4.22;96.58
62928;BME280;51070;52.236;-0.892;2023-01-27T02:58:42;102226.23;;;4.23;96.97
62928;BME280;51070;52.236;-0.892;2023-01-27T03:01:08;102223.58;;;4.22;96.74
62928;BME280;51070;52.236;-0.892;2023-01-27T03:03:33;102221.42;;;4.21;96.93
62928;BME280;51070;52.236;-0.892;2023-01-27T03:05:59;102221.95;;;4.18;96.92
62928;BME280;51070;52.236;-0.892;2023-01-27T03:08:24;102224.23;;;4.17;97.01
62928;BME280;51070;52.236;-0.892;2023-01-27T03:10:51;102227.92;;;4.19;97.24
62928;BME280;51070;52.236;-0.892;2023-01-27T03:13:24;102223.70;;;4.19;97.17
62928;BME280;51070;52.236;-0.892;2023-01-27T03:15:50;102224.57;;;4.19;97.30
62928;BME280;51070;52.236;-0.892;2023-01-27T03:18:35;102225.05;;;4.19;97.23
62928;BME280;51070;52.236;-0.892;2023-01-27T03:21:03;102220.08;;;4.19;97.60
62928;BME280;51070;52.236;-0.892;2023-01-27T03:23:29;102221.75;;;4.18;97.66
62928;BME280;51070;52.236;-0.892;2023-01-27T03:25:59;102222.73;;;4.18;97.61
62928;BME280;51070;52.236;-0.892;2023-01-27T03:28:24;102225.23;;;4.17;97.82
62928;BME280;51070;52.236;-0.892;2023-01-27T03:30:50;102223.90;;;4.15;97.73
62928;BME280;51070;52.236;-0.892;2023-01-27T03:33:15;102225.52;;;4.14;97.86
62928;BME280;51070;52.236;-0.892;2023-01-27T03:35:40;102223.85;;;4.13;98.00
62928;BME280;51070;52.236;-0.892;2023-01-27T03:38:13;102223.25;;;4.14;98.24
62928;BME280;51070;52.236;-0.892;2023-01-27T03:40:58;102220.55;;;4.16;98.30
62928;BME280;51070;52.236;-0.892;2023-01-27T03:43:43;102219.27;;;4.18;98.31
62928;BME280;51070;52.236;-0.892;2023-01-27T03:46:27;102220.91;;;4.17;98.48
62928;BME280;51070;52.236;-0.892;2023-01-27T03:48:54;102223.61;;;4.16;98.50
62928;BME280;51070;52.236;-0.892;2023-01-27T03:51:24;102226.89;;;4.14;98.48
62928;BME280;51070;52.236;-0.892;2023-01-27T03:53:50;102227.64;;;4.13;98.56
62928;BME280;51070;52.236;-0.892;2023-01-27T03:56:17;102226.14;;;4.11;98.67
62928;BME280;51070;52.236;-0.892;2023-01-27T03:58:43;102216.35;;;4.09;98.76
62928;BME280;51070;52.236;-0.892;2023-01-27T04:01:15;102218.56;;;4.07;99.12
62928;BME280;51070;52.236;-0.892;2023-01-27T04:03:41;102219.66;;;4.06;99.39
62928;BME280;51070;52.236;-0.892;2023-01-27T04:06:29;102220.80;;;4.04;99.48
62928;BME280;51070;52.236;-0.892;2023-01-27T04:09:19;102219.80;;;4.05;99.93
62928;BME280;51070;52.236;-0.892;2023-01-27T04:11:44;102217.61;;;4.06;100.00
62928;BME280;51070;52.236;-0.892;2023-01-27T04:14:30;102216.88;;;4.05;100.00
62928;BME280;51070;52.236;-0.892;2023-01-27T04:17:09;102214.38;;;4.06;100.00
62928;BME280;51070;52.236;-0.892;2023-01-27T04:19:35;102216.50;;;4.07;100.00
62928;BME280;51070;52.236;-0.892;2023-01-27T04:22:01;102213.60;;;4.07;100.00
62928;BME280;51070;52.236;-0.892;2023-01-27T04:24:27;102212.27;;;4.05;100.00
62928;BME280;51070;52.236;-0.892;2023-01-27T04:29:24;102213.39;;;4.02;100.00
62928;BME280;51070;52.236;-0.892;2023-01-27T04:31:50;102212.35;;;4.04;100.00
62928;BME280;51070;52.236;-0.892;2023-01-27T04:34:16;102204.95;;;4.06;100.00
62928;BME280;51070;52.236;-0.892;2023-01-27T04:36:42;102208.09;;;4.06;100.00
62928;BME280;51070;52.236;-0.892;2023-01-27T04:39:08;102206.86;;;4.08;100.00
62928;BME280;51070;52.236;-0.892;2023-01-27T04:41:35;102211.08;;;4.09;100.00
62928;BME280;51070;52.236;-0.892;2023-01-27T04:44:01;102212.67;;;4.10;100.00
62928;BME280;51070;52.236;-0.892;2023-01-27T04:46:27;102210.95;;;4.12;100.00
62928;BME280;51070;52.236;-0.892;2023-01-27T04:48:52;102206.77;;;4.11;100.00
62928;BME280;51070;52.236;-0.892;2023-01-27T04:51:18;102211.55;;;4.11;100.00
62928;BME280;51070;52.236;-0.892;2023-01-27T04:53:43;102210.59;;;4.12;100.00
62928;BME280;51070;52.236;-0.892;2023-01-27T04:58:48;102211.49;;;4.14;100.00
62928;BME280;51070;52.236;-0.892;2023-01-27T05:01:14;102213.52;;;4.14;100.00
62928;BME280;51070;52.236;-0.892;2023-01-27T05:03:39;102217.43;;;4.16;100.00
62928;BME280;51070;52.236;-0.892;2023-01-27T05:06:05;102223.48;;;4.16;100.00
62928;BME280;51070;52.236;-0.892;2023-01-27T05:08:31;102217.86;;;4.17;100.00
62928;BME280;51070;52.236;-0.892;2023-01-27T05:10:56;102221.20;;;4.16;100.00
62928;BME280;51070;52.236;-0.892;2023-01-27T05:13:21;102221.17;;;4.16;100.00
62928;BME280;51070;52.236;-0.892;2023-01-27T05:15:47;102223.16;;;4.15;100.00
62928;BME280;51070;52.236;-0.892;2023-01-27T05:18:13;102224.12;;;4.14;100.00
62928;BME280;51070;52.236;-0.892;2023-01-27T05:20:38;102222.08;;;4.14;100.00
62928;BME280;51070;52.236;-0.892;2023-01-27T05:23:04;102221.02;;;4.16;100.00
62928;BME280;51070;52.236;-0.892;2023-01-27T05:25:48;102217.19;;;4.17;100.00
62928;BME280;51070;52.236;-0.892;2023-01-27T05:28:13;102218.84;;;4.20;100.00
62928;BME280;51070;52.236;-0.892;2023-01-27T05:30:39;102217.98;;;4.25;100.00
62928;BME280;51070;52.236;-0.892;2023-01-27T05:33:04;102220.55;;;4.29;100.00
62928;BME280;51070;52.236;-0.892;2023-01-27T05:35:33;102219.20;;;4.31;100.00
62928;BME280;51070;52.236;-0.892;2023-01-27T05:37:59;102218.59;;;4.32;100.00
62928;BME280;51070;52.236;-0.892;2023-01-27T05:40:25;102219.48;;;4.33;100.00
62928;BME280;51070;52.236;-0.892;2023-01-27T05:42:51;102223.73;;;4.33;100.00
62928;BME280;51070;52.236;-0.892;2023-01-27T05:45:17;102223.99;;;4.31;100.00
62928;BME280;51070;52.236;-0.892;2023-01-27T05:47:42;102223.00;;;4.32;100.00
62928;BME280;51070;52.236;-0.892;2023-01-27T05:50:08;102229.38;;;4.32;100.00
62928;BME280;51070;52.236;-0.892;2023-01-27T05:52:34;102233.40;;;4.33;100.00
62928;BME280;51070;52.236;-0.892;2023-01-27T05:54:59;102227.54;;;4.33;100.00
62928;BME280;51070;52.236;-0.892;2023-01-27T05:57:25;102225.02;;;4.33;100.00
62928;BME280;51070;52.236;-0.892;2023-01-27T05:59:50;102224.95;;;4.35;100.00
62928;BME280;51070;52.236;-0.892;2023-01-27T06:02:15;102230.04;;;4.34;100.00
62928;BME280;51070;52.236;-0.892;2023-01-27T06:04:41;102229.39;;;4.33;100.00
62928;BME280;51070;52.236;-0.892;2023-01-27T06:07:06;102230.02;;;4.32;100.00
62928;BME280;51070;52.236;-0.892;2023-01-27T06:09:31;102230.41;;;4.30;100.00
62928;BME280;51070;52.236;-0.892;2023-01-27T06:11:57;102232.44;;;4.30;100.00
62928;BME280;51070;52.236;-0.892;2023-01-27T06:14:22;102233.38;;;4.31;100.00
62928;BME280;51070;52.236;-0.892;2023-01-27T06:16:48;102234.64;;;4.32;100.00
62928;BME280;51070;52.236;-0.892;2023-01-27T06:19:13;102238.40;;;4.34;100.00
62928;BME280;51070;52.236;-0.892;2023-01-27T06:21:39;102237.70;;;4.35;100.00
62928;BME280;51070;52.236;-0.892;2023-01-27T06:24:05;102237.69;;;4.37;100.00
62928;BME280;51070;52.236;-0.892;2023-01-27T06:26:31;102242.61;;;4.37;100.00
62928;BME280;51070;52.236;-0.892;2023-01-27T06:28:56;102249.21;;;4.36;100.00
62928;BME280;51070;52.236;-0.892;2023-01-27T06:31:22;102247.58;;;4.35;100.00
62928;BME280;51070;52.236;-0.892;2023-01-27T06:33:49;102244.64;;;4.33;100.00
62928;BME280;51070;52.236;-0.892;2023-01-27T06:36:17;102241.25;;;4.31;100.00
62928;BME280;51070;52.236;-0.892;2023-01-27T06:38:43;102249.44;;;4.31;100.00
62928;BME280;51070;52.236;-0.892;2023-01-27T06:41:09;102240.76;;;4.29;100.00
62928;BME280;51070;52.236;-0.892;2023-01-27T06:43:34;102235.73;;;4.28;100.00
62928;BME280;51070;52.236;-0.892;2023-01-27T06:46:00;102235.59;;;4.29;100.00
62928;BME280;51070;52.236;-0.892;2023-01-27T06:48:26;102230.67;;;4.29;100.00
62928;BME280;51070;52.236;-0.892;2023-01-27T06:50:53;102230.85;;;4.29;100.00
62928;BME280;51070;52.236;-0.892;2023-01-27T06:53:19;102233.21;;;4.29;100.00
62928;BME280;51070;52.236;-0.892;2023-01-27T06:55:44;102236.19;;;4.28;100.00
62928;BME280;51070;52.236;-0.892;2023-01-27T06:58:11;102236.02;;;4.28;100.00
62928;BME280;51070;52.236;-0.892;2023-01-27T07:00:38;102231.70;;;4.27;100.00
62928;BME280;51070;52.236;-0.892;2023-01-27T07:03:05;102236.71;;;4.26;100.00
62928;BME280;51070;52.236;-0.892;2023-01-27T07:05:31;102242.52;;;4.23;100.00
62928;BME280;51070;52.236;-0.892;2023-01-27T07:07:58;102240.39;;;4.22;100.00
62928;BME280;51070;52.236;-0.892;2023-01-27T07:10:23;102238.64;;;4.22;100.00
62928;BME280;51070;52.236;-0.892;2023-01-27T07:12:49;102239.78;;;4.21;100.00
62928;BME280;51070;52.236;-0.892;2023-01-27T07:15:14;102244.17;;;4.20;100.00
62928;BME280;51070;52.236;-0.892;2023-01-27T07:17:39;102242.02;;;4.21;100.00
62928;BME280;51070;52.236;-0.892;2023-01-27T07:20:07;102239.05;;;4.23;100.00
62928;BME280;51070;52.236;-0.892;2023-01-27T07:22:33;102243.75;;;4.24;100.00
62928;BME280;51070;52.236;-0.892;2023-01-27T07:24:59;102244.41;;;4.25;100.00
62928;BME280;51070;52.236;-0.892;2023-01-27T07:27:24;102244.78;;;4.26;100.00
62928;BME280;51070;52.236;-0.892;2023-01-27T07:29:51;102246.02;;;4.27;100.00
62928;BME280;51070;52.236;-0.892;2023-01-27T07:32:16;102249.36;;;4.26;100.00
62928;BME280;51070;52.236;-0.892;2023-01-27T07:34:42;102253.02;;;4.24;100.00
62928;BME280;51070;52.236;-0.892;2023-01-27T07:37:07;102254.58;;;4.22;100.00
62928;BME280;51070;52.236;-0.892;2023-01-27T07:39:35;102257.81;;;4.22;100.00
62928;BME280;51070;52.236;-0.892;2023-01-27T07:42:01;102254.27;;;4.22;100.00
62928;BME280;51070;52.236;-0.892;2023-01-27T07:44:27;102252.05;;;4.25;100.00
62928;BME280;51070;52.236;-0.892;2023-01-27T07:46:52;102250.66;;;4.27;100.00
62928;BME280;51070;52.236;-0.892;2023-01-27T07:49:18;102252.62;;;4.30;100.00
62928;BME280;51070;52.236;-0.892;2023-01-27T07:51:44;102254.55;;;4.30;100.00
62928;BME280;51070;52.236;-0.892;2023-01-27T07:54:10;102253.20;;;4.29;100.00
62928;BME280;51070;52.236;-0.892;2023-01-27T07:56:36;102256.90;;;4.28;100.00
62928;BME280;51070;52.236;-0.892;2023-01-27T07:59:01;102252.95;;;4.25;100.00
62928;BME280;51070;52.236;-0.892;2023-01-27T08:01:27;102246.95;;;4.23;100.00
62928;BME280;51070;52.236;-0.892;2023-01-27T08:03:53;102252.45;;;4.23;100.00
62928;BME280;51070;52.236;-0.892;2023-01-27T08:06:19;102260.48;;;4.23;100.00
62928;BME280;51070;52.236;-0.892;2023-01-27T08:08:44;102260.70;;;4.24;100.00
62928;BME280;51070;52.236;-0.892;2023-01-27T08:11:12;102261.23;;;4.24;100.00
62928;BME280;51070;52.236;-0.892;2023-01-27T08:13:38;102263.77;;;4.26;100.00
62928;BME280;51070;52.236;-0.892;2023-01-27T08:16:05;102268.04;;;4.28;100.00
62928;BME280;51070;52.236;-0.892;2023-01-27T08:18:32;102266.13;;;4.29;100.00
62928;BME280;51070;52.236;-0.892;2023-01-27T08:21:00;102260.73;;;4.31;100.00
62928;BME280;51070;52.236;-0.892;2023-01-27T08:23:26;102265.33;;;4.30;99.97
62928;BME280;51070;52.236;-0.892;2023-01-27T08:25:52;102268.59;;;4.30;99.96
62928;BME280;51070;52.236;-0.892;2023-01-27T08:28:19;102265.36;;;4.31;99.88
62928;BME280;51070;52.236;-0.892;2023-01-27T08:30:46;102265.26;;;4.31;99.45
62928;BME280;51070;52.236;-0.892;2023-01-27T08:33:12;102263.84;;;4.33;99.17
62928;BME280;51070;52.236;-0.892;2023-01-27T08:35:38;102264.46;;;4.36;99.23
62928;BME280;51070;52.236;-0.892;2023-01-27T08:38:07;102260.43;;;4.42;99.09
62928;BME280;51070;52.236;-0.892;2023-01-27T08:40:33;102256.92;;;4.47;98.87
62928;BME280;51070;52.236;-0.892;2023-01-27T08:42:58;102263.08;;;4.55;98.90
62928;BME280;51070;52.236;-0.892;2023-01-27T08:45:26;102266.83;;;4.59;98.27
62928;BME280;51070;52.236;-0.892;2023-01-27T08:47:52;102266.71;;;4.64;98.27
62928;BME280;51070;52.236;-0.892;2023-01-27T08:50:18;102266.74;;;4.67;97.78
62928;BME280;51070;52.236;-0.892;2023-01-27T08:52:43;102267.49;;;4.70;97.60
62928;BME280;51070;52.236;-0.892;2023-01-27T08:55:09;102261.58;;;4.73;97.32
62928;BME280;51070;52.236;-0.892;2023-01-27T08:57:35;102270.88;;;4.76;97.28
62928;BME280;51070;52.236;-0.892;2023-01-27T09:00:02;102267.95;;;4.78;96.94
62928;BME280;51070;52.236;-0.892;2023-01-27T09:02:28;102275.30;;;4.79;97.00
62928;BME280;51070;52.236;-0.892;2023-01-27T09:04:53;102279.05;;;4.85;97.07
62928;BME280;51070;52.236;-0.892;2023-01-27T09:07:18;102279.42;;;4.90;96.69
62928;BME280;51070;52.236;-0.892;2023-01-27T09:09:48;102278.16;;;4.94;96.38
62928;BME280;51070;52.236;-0.892;2023-01-27T09:12:14;102280.85;;;4.99;96.13
62928;BME280;51070;52.236;-0.892;2023-01-27T09:14:40;102281.75;;;5.04;95.77
62928;BME280;51070;52.236;-0.892;2023-01-27T09:17:05;102283.88;;;5.10;95.44
62928;BME280;51070;52.236;-0.892;2023-01-27T09:19:31;102284.36;;;5.14;94.99
62928;BME280;51070;52.236;-0.892;2023-01-27T09:21:56;102287.55;;;5.13;94.61
62928;BME280;51070;52.236;-0.892;2023-01-27T09:24:22;102291.61;;;5.12;94.59
62928;BME280;51070;52.236;-0.892;2023-01-27T09:26:48;102301.45;;;5.15;94.65
62928;BME280;51070;52.236;-0.892;2023-01-27T09:29:14;102303.70;;;5.22;94.58
62928;BME280;51070;52.236;-0.892;2023-01-27T09:31:39;102307.49;;;5.27;94.38
62928;BME280;51070;52.236;-0.892;2023-01-27T09:34:05;102311.30;;;5.29;94.23
62928;BME280;51070;52.236;-0.892;2023-01-27T09:36:31;102307.31;;;5.31;93.98
62928;BME280;51070;52.236;-0.892;2023-01-27T09:39:03;102309.31;;;5.32;93.87
62928;BME280;51070;52.236;-0.892;2023-01-27T09:41:37;102314.13;;;5.34;93.77
62928;BME280;51070;52.236;-0.892;2023-01-27T09:52:22;102313.94;;;5.47;92.99
62928;BME280;51070;52.236;-0.892;2023-01-27T09:58:38;102314.52;;;5.60;92.82
62928;BME280;51070;52.236;-0.892;2023-01-27T10:03:28;102312.02;;;5.73;92.19
62928;BME280;51070;52.236;-0.892;2023-01-27T10:11:19;102316.62;;;5.80;91.15
62928;BME280;51070;52.236;-0.892;2023-01-27T10:14:02;102320.04;;;5.80;91.05
62928;BME280;51070;52.236;-0.892;2023-01-27T10:17:01;102329.61;;;5.81;90.84
62928;BME280;51070;52.236;-0.892;2023-01-27T10:27:32;102333.42;;;5.97;89.35
62928;BME280;51070;52.236;-0.892;2023-01-27T10:30:14;102327.51;;;5.98;89.22
62928;BME280;51070;52.236;-0.892;2023-01-27T10:32:44;102327.23;;;5.99;88.96
62928;BME280;51070;52.236;-0.892;2023-01-27T10:35:18;102327.30;;;5.98;88.60
62928;BME280;51070;52.236;-0.892;2023-01-27T10:43:51;102321.58;;;6.04;88.36
62928;BME280;51070;52.236;-0.892;2023-01-27T10:49:03;102328.83;;;6.11;88.13
62928;BME280;51070;52.236;-0.892;2023-01-27T10:51:38;102328.77;;;6.17;87.58
62928;BME280;51070;52.236;-0.892;2023-01-27T10:54:15;102335.08;;;6.21;87.51
62928;BME280;51070;52.236;-0.892;2023-01-27T10:56:52;102331.27;;;6.23;87.46
62928;BME280;51070;52.236;-0.892;2023-01-27T10:59:54;102331.97;;;6.25;87.26
62928;BME280;51070;52.236;-0.892;2023-01-27T11:05:10;102326.42;;;6.27;86.96
62928;BME280;51070;52.236;-0.892;2023-01-27T11:07:47;102328.27;;;6.28;86.72
62928;BME280;51070;52.236;-0.892;2023-01-27T11:10:18;102326.92;;;6.31;86.89
62928;BME280;51070;52.236;-0.892;2023-01-27T11:12:48;102325.75;;;6.34;86.53
62928;BME280;51070;52.236;-0.892;2023-01-27T11:15:16;102327.64;;;6.36;86.40
62928;BME280;51070;52.236;-0.892;2023-01-27T11:17:47;102328.00;;;6.37;86.24
62928;BME280;51070;52.236;-0.892;2023-01-27T11:20:32;102323.21;;;6.37;86.03
62928;BME280;51070;52.236;-0.892;2023-01-27T11:28:11;102322.50;;;6.39;85.61
62928;BME280;51070;52.236;-0.892;2023-01-27T11:30:50;102317.39;;;6.42;85.39
62928;BME280;51070;52.236;-0.892;2023-01-27T11:36:08;102313.21;;;6.50;84.85
62928;BME280;51070;52.236;-0.892;2023-01-27T11:38:34;102313.80;;;6.54;84.72
62928;BME280;51070;52.236;-0.892;2023-01-27T11:40:59;102308.52;;;6.59;84.61
62928;BME280;51070;52.236;-0.892;2023-01-27T11:43:26;102302.69;;;6.66;84.47
62928;BME280;51070;52.236;-0.892;2023-01-27T11:45:59;102296.45;;;6.75;84.26
62928;BME280;51070;52.236;-0.892;2023-01-27T11:48:40;102290.25;;;6.84;83.57
62928;BME280;51070;52.236;-0.892;2023-01-27T11:51:17;102291.52;;;6.90;83.09
62928;BME280;51070;52.236;-0.892;2023-01-27T11:53:47;102288.83;;;6.93;83.09
62928;BME280;51070;52.236;-0.892;2023-01-27T11:56:17;102287.52;;;6.96;82.94
62928;BME280;51070;52.236;-0.892;2023-01-27T11:59:17;102281.55;;;6.99;82.21
62928;BME280;51070;52.236;-0.892;2023-01-27T12:01:48;102280.85;;;6.99;81.95
62928;BME280;51070;52.236;-0.892;2023-01-27T12:04:24;102278.03;;;7.03;81.85
62928;BME280;51070;52.236;-0.892;2023-01-27T12:07:03;102275.41;;;7.09;81.76
62928;BME280;51070;52.236;-0.892;2023-01-27T12:09:30;102275.46;;;7.15;81.41
62928;BME280;51070;52.236;-0.892;2023-01-27T12:19:55;102272.35;;;7.46;79.70
62928;BME280;51070;52.236;-0.892;2023-01-27T12:22:37;102271.00;;;7.49;79.27
62928;BME280;51070;52.236;-0.892;2023-01-27T12:25:06;102266.66;;;7.51;78.89
62928;BME280;51070;52.236;-0.892;2023-01-27T12:27:47;102268.48;;;7.55;78.68
62928;BME280;51070;52.236;-0.892;2023-01-27T12:30:20;102262.27;;;7.58;78.03
62928;BME280;51070;52.236;-0.892;2023-01-27T12:32:47;102259.77;;;7.64;77.88
62928;BME280;51070;52.236;-0.892;2023-01-27T12:35:22;102259.71;;;7.68;77.40
62928;BME280;51070;52.236;-0.892;2023-01-27T12:37:54;102253.01;;;7.68;76.92
62928;BME280;51070;52.236;-0.892;2023-01-27T12:40:23;102257.84;;;7.66;77.17
62928;BME280;51070;52.236;-0.892;2023-01-27T12:43:06;102261.63;;;7.61;77.00
62928;BME280;51070;52.236;-0.892;2023-01-27T12:45:34;102260.37;;;7.55;77.29
62928;BME280;51070;52.236;-0.892;2023-01-27T12:50:35;102262.67;;;7.56;77.61
62928;BME280;51070;52.236;-0.892;2023-01-27T12:53:13;102262.23;;;7.57;77.28
62928;BME280;51070;52.236;-0.892;2023-01-27T12:55:46;102257.23;;;7.59;77.32
62928;BME280;51070;52.236;-0.892;2023-01-27T13:00:59;102257.70;;;7.66;77.13
62928;BME280;51070;52.236;-0.892;2023-01-27T13:03:25;102253.52;;;7.68;77.28
62928;BME280;51070;52.236;-0.892;2023-01-27T13:05:57;102250.33;;;7.72;76.18
62928;BME280;51070;52.236;-0.892;2023-01-27T13:08:25;102248.93;;;7.84;76.35
62928;BME280;51070;52.236;-0.892;2023-01-27T13:11:01;102242.88;;;7.96;76.39
62928;BME280;51070;52.236;-0.892;2023-01-27T13:13:28;102238.02;;;8.09;75.26
62928;BME280;51070;52.236;-0.892;2023-01-27T13:18:32;102246.27;;;8.16;73.92
62928;BME280;51070;52.236;-0.892;2023-01-27T13:21:02;102241.61;;;8.14;73.61
62928;BME280;51070;52.236;-0.892;2023-01-27T13:23:36;102236.06;;;8.13;73.81
62928;BME280;51070;52.236;-0.892;2023-01-27T13:28:42;102235.15;;;8.02;72.31
62928;BME280;51070;52.236;-0.892;2023-01-27T13:31:18;102234.26;;;7.91;72.15
62928;BME280;51070;52.236;-0.892;2023-01-27T13:34:00;102236.32;;;7.83;72.72
62928;BME280;51070;52.236;-0.892;2023-01-27T13:36:41;102238.34;;;7.83;72.93
62928;BME280;51070;52.236;-0.892;2023-01-27T13:42:18;102233.17;;;8.00;72.49
62928;BME280;51070;52.236;-0.892;2023-01-27T13:44:50;102228.05;;;8.04;71.67
62928;BME280;51070;52.236;-0.892;2023-01-27T13:47:23;102227.53;;;8.01;71.54
62928;BME280;51070;52.236;-0.892;2023-01-27T13:49:55;102229.83;;;7.99;71.72
62928;BME280;51070;52.236;-0.892;2023-01-27T13:52:22;102223.40;;;8.01;71.58
62928;BME280;51070;52.236;-0.892;2023-01-27T13:54:48;102222.35;;;8.01;71.24
62928;BME280;51070;52.236;-0.892;2023-01-27T14:00:21;102224.38;;;7.85;68.88
62928;BME280;51070;52.236;-0.892;2023-01-27T14:05:55;102232.84;;;7.78;68.44
62928;BME280;51070;52.236;-0.892;2023-01-27T14:08:40;102228.02;;;7.70;67.21
62928;BME280;51070;52.236;-0.892;2023-01-27T14:25:22;102215.74;;;7.54;69.19
62928;BME280;51070;52.236;-0.892;2023-01-27T14:27:56;102217.91;;;7.45;69.38
62928;BME280;51070;52.236;-0.892;2023-01-27T14:30:36;102218.44;;;7.45;69.87